createdAt,value
2018-07-02T00:00:54.715Z,1.80
2018-07-02T00:03:25.395Z,1.90
2018-07-02T00:08:05.860Z,2.17
2018-07-02T00:10:36.513Z,2.00
2018-07-02T00:13:07.251Z,2.00
2018-07-02T00:15:38.163Z,2.00
2018-07-02T00:18:08.868Z,2.00
2018-07-02T00:20:39.552Z,2.00
2018-07-02T00:23:10.691Z,2.03
2018-07-02T00:25:41.894Z,2.40
2018-07-02T00:28:12.387Z,1.97
2018-07-02T00:30:43.695Z,2.13
2018-07-02T00:33:14.383Z,2.00
2018-07-02T00:35:45.479Z,2.20
2018-07-02T00:38:16.671Z,2.10
2018-07-02T00:40:47.648Z,2.30
2018-07-02T00:43:18.285Z,2.20
2018-07-02T00:45:49.968Z,2.07
2018-07-02T00:48:21.259Z,2.20
2018-07-02T00:50:52.649Z,2.20
2018-07-02T00:53:24.481Z,2.40
2018-07-02T00:55:55.790Z,2.40
2018-07-02T00:58:27.260Z,2.40
2018-07-02T01:00:58.567Z,2.30
2018-07-02T01:03:29.266Z,2.63
2018-07-02T01:06:00.592Z,2.30
2018-07-02T01:08:32.196Z,2.30
2018-07-02T01:11:03.607Z,2.50
2018-07-02T01:13:34.310Z,2.50
2018-07-02T01:16:05.831Z,2.73
2018-07-02T01:18:36.584Z,2.20
2018-07-02T01:21:10.437Z,2.30
2018-07-02T01:23:41.376Z,2.60
2018-07-02T01:26:12.935Z,2.43
2018-07-02T01:28:43.909Z,2.30
2018-07-02T01:31:15.015Z,2.20
2018-07-02T01:33:45.755Z,2.60
2018-07-02T01:36:16.440Z,2.50
2018-07-02T01:38:47.668Z,2.40
2018-07-02T01:41:18.367Z,2.10
2018-07-02T01:43:49.324Z,2.47
2018-07-02T01:46:20.436Z,2.30
2018-07-02T01:48:51.183Z,2.47
2018-07-02T01:51:22.579Z,2.30
2018-07-02T01:53:53.821Z,2.37
2018-07-02T01:56:24.984Z,2.43
2018-07-02T01:58:56.481Z,2.53
2018-07-02T02:06:15.146Z,2.50
2018-07-02T02:08:45.859Z,2.70
2018-07-02T02:11:16.643Z,2.60
2018-07-02T02:13:47.303Z,3.03
2018-07-02T02:16:18.107Z,3.50
2018-07-02T02:18:48.778Z,3.33
2018-07-02T02:21:19.482Z,3.63
2018-07-02T02:23:49.610Z,3.40
2018-07-02T02:26:20.278Z,3.70
2018-07-02T02:28:50.947Z,3.10
2018-07-02T02:31:21.656Z,3.20
2018-07-02T02:33:52.363Z,2.77
2018-07-02T02:36:23.023Z,3.00
2018-07-02T02:38:53.693Z,3.20
2018-07-02T02:41:24.483Z,3.20
2018-07-02T02:43:54.653Z,2.80
2018-07-02T02:46:25.321Z,2.53
2018-07-02T02:48:56.021Z,3.40
2018-07-02T02:51:26.690Z,3.10
2018-07-02T02:53:57.424Z,3.67
2018-07-02T02:56:28.118Z,4.10
2018-07-02T02:58:58.815Z,3.73
2018-07-02T03:01:29.524Z,4.07
2018-07-02T03:04:00.376Z,4.23
2018-07-02T03:06:31.113Z,4.47
2018-07-02T03:09:02.167Z,4.80
2018-07-02T03:11:32.981Z,4.40
2018-07-02T03:14:03.631Z,4.67
2018-07-02T03:16:34.349Z,4.97
2018-07-02T03:19:05.084Z,5.00
2018-07-02T03:21:35.784Z,4.83
2018-07-02T03:24:07.064Z,4.83
2018-07-02T03:26:37.735Z,4.77
2018-07-02T03:29:08.411Z,5.27
2018-07-02T03:31:39.128Z,5.00
2018-07-02T03:34:09.393Z,5.90
2018-07-02T03:36:40.279Z,6.67
2018-07-02T03:39:11.463Z,6.67
2018-07-02T03:41:42.271Z,7.43
2018-07-02T03:44:12.362Z,6.37
2018-07-02T03:46:43.159Z,6.03
2018-07-02T03:49:13.808Z,6.03
2018-07-02T03:51:44.530Z,6.20
2018-07-02T03:54:15.332Z,6.07
2018-07-02T03:56:46.016Z,5.70
2018-07-02T03:59:16.698Z,5.60
2018-07-02T04:01:47.383Z,5.60
2018-07-02T04:04:18.111Z,5.40
2018-07-02T04:06:48.783Z,5.53
2018-07-02T04:09:19.467Z,5.37
2018-07-02T04:11:49.619Z,5.43
2018-07-02T04:14:20.323Z,5.13
2018-07-02T04:16:50.956Z,5.23
2018-07-02T04:19:21.636Z,5.10
2018-07-02T04:21:52.308Z,5.40
2018-07-02T04:24:23.056Z,5.43
2018-07-02T04:26:54.123Z,5.80
2018-07-02T04:29:24.804Z,5.87
2018-07-02T04:31:55.432Z,5.77
2018-07-02T04:34:26.097Z,5.97
2018-07-02T04:36:56.779Z,5.63
2018-07-02T04:39:27.567Z,5.67
2018-07-02T04:41:58.216Z,5.80
2018-07-02T04:44:28.887Z,5.80
2018-07-02T04:46:59.635Z,5.70
2018-07-02T04:49:30.427Z,5.90
2018-07-02T04:52:01.104Z,5.73
2018-07-02T04:54:31.838Z,6.00
2018-07-02T04:57:02.516Z,6.13
2018-07-02T04:59:33.274Z,6.10
2018-07-02T05:02:03.991Z,6.20
2018-07-02T05:04:34.628Z,6.00
2018-07-02T05:07:05.564Z,5.80
2018-07-02T05:09:36.180Z,6.10
2018-07-02T05:12:07.020Z,6.33
2018-07-02T05:14:37.623Z,6.30
2018-07-02T05:17:08.605Z,6.20
2018-07-02T05:19:39.386Z,6.30
2018-07-02T05:22:10.338Z,6.00
2018-07-02T05:24:41.432Z,6.17
2018-07-02T05:27:12.094Z,6.07
2018-07-02T05:29:42.190Z,6.30
2018-07-02T05:32:13.572Z,6.43
2018-07-02T05:34:44.243Z,6.63
2018-07-02T05:37:14.980Z,6.70
2018-07-02T05:39:45.664Z,6.93
2018-07-02T05:42:16.311Z,6.70
2018-07-02T05:44:46.999Z,6.60
2018-07-02T05:47:18.187Z,6.33
2018-07-02T05:49:48.839Z,6.03
2018-07-02T05:52:20.148Z,6.00
2018-07-02T05:54:51.085Z,6.20
2018-07-02T05:57:21.745Z,5.80
2018-07-02T05:59:52.392Z,5.10
2018-07-02T06:02:23.199Z,5.73
2018-07-02T06:04:53.853Z,5.50
2018-07-02T06:07:24.482Z,5.80
2018-07-02T06:09:55.113Z,6.63
2018-07-02T06:12:25.750Z,6.50
2018-07-02T06:14:56.411Z,6.17
2018-07-02T06:17:27.043Z,6.40
2018-07-02T06:19:57.739Z,7.10
2018-07-02T06:22:28.433Z,7.23
2018-07-02T06:24:59.421Z,6.93
2018-07-02T06:27:30.089Z,7.40
2018-07-02T06:30:00.741Z,6.83
2018-07-02T06:32:31.419Z,6.67
2018-07-02T06:35:02.058Z,7.07
2018-07-02T06:37:32.724Z,8.03
2018-07-02T06:40:03.416Z,7.87
2018-07-02T06:42:34.091Z,7.50
2018-07-02T06:45:04.945Z,7.17
2018-07-02T06:47:35.620Z,7.43
2018-07-02T06:50:06.454Z,7.07
2018-07-02T06:52:37.123Z,7.00
2018-07-02T06:55:07.887Z,6.57
2018-07-02T06:57:37.950Z,7.13
2018-07-02T07:00:08.651Z,7.00
2018-07-02T07:02:39.295Z,7.17
2018-07-02T07:05:09.928Z,7.40
2018-07-02T07:07:40.579Z,6.20
2018-07-02T07:10:11.262Z,6.23
2018-07-02T07:12:41.960Z,6.50
2018-07-02T07:15:12.777Z,6.20
2018-07-02T07:17:43.396Z,5.80
2018-07-02T07:20:14.084Z,6.43
2018-07-02T07:22:44.165Z,5.93
2018-07-02T07:25:15.105Z,5.20
2018-07-02T07:27:45.747Z,5.47
2018-07-02T07:30:16.764Z,5.33
2018-07-02T07:32:47.408Z,5.20
2018-07-02T07:35:18.052Z,4.50
2018-07-02T07:37:48.720Z,4.50
2018-07-02T07:40:19.352Z,5.10
2018-07-02T07:42:49.992Z,5.00
2018-07-02T07:45:20.812Z,4.80
2018-07-02T07:47:51.478Z,4.37
2018-07-02T07:50:22.157Z,4.37
2018-07-02T07:52:53.020Z,4.47
2018-07-02T07:55:23.676Z,4.70
2018-07-02T07:57:54.383Z,4.73
2018-07-02T08:00:25.052Z,4.20
2018-07-02T08:02:55.720Z,4.40
2018-07-02T08:05:26.412Z,4.20
2018-07-02T08:07:57.087Z,5.00
2018-07-02T08:10:27.723Z,4.37
2018-07-02T08:12:58.390Z,4.00
2018-07-02T08:15:29.440Z,4.30
2018-07-02T08:18:00.083Z,3.43
2018-07-02T08:20:31.215Z,3.20
2018-07-02T08:23:01.912Z,3.10
2018-07-02T08:25:32.596Z,2.70
2018-07-02T08:28:03.222Z,2.67
2018-07-02T08:30:33.864Z,2.40
2018-07-02T08:33:04.592Z,2.90
2018-07-02T08:35:35.276Z,2.70
2018-07-02T08:38:05.915Z,3.00
2018-07-02T08:40:36.644Z,3.33
2018-07-02T08:43:07.307Z,2.87
2018-07-02T08:45:38.012Z,2.70
2018-07-02T08:48:08.674Z,2.43
2018-07-02T08:50:39.319Z,2.37
2018-07-02T08:53:10.005Z,2.97
2018-07-02T08:55:40.778Z,2.70
2018-07-02T08:58:11.460Z,2.40
2018-07-02T09:00:42.114Z,2.70
2018-07-02T09:03:19.254Z,2.60
2018-07-02T09:05:49.976Z,2.53
2018-07-02T09:08:20.763Z,2.20
2018-07-02T09:10:51.427Z,2.70
2018-07-02T09:13:22.075Z,2.50
2018-07-02T09:34:02.921Z,2.60
2018-07-02T09:36:34.275Z,2.27
2018-07-02T09:39:08.223Z,2.62
2018-07-02T09:41:39.434Z,2.27
2018-07-02T09:44:10.945Z,2.22
2018-07-02T09:46:42.028Z,2.47
2018-07-02T09:49:13.206Z,2.55
2018-07-02T09:51:44.363Z,2.40
2018-07-02T09:54:15.562Z,2.10
2018-07-02T09:56:47.324Z,2.10
2018-07-02T09:59:18.347Z,2.22
2018-07-02T10:01:49.525Z,2.17
2018-07-02T10:04:20.558Z,2.45
2018-07-02T10:06:51.755Z,2.25
2018-07-02T10:09:23.080Z,2.10
2018-07-02T10:11:54.343Z,2.37
2018-07-02T10:14:25.796Z,2.50
2018-07-02T10:16:57.125Z,2.27
2018-07-02T10:19:28.322Z,2.30
2018-07-02T10:21:59.667Z,2.20
2018-07-02T10:24:31.069Z,2.20
2018-07-02T10:27:02.231Z,2.20
2018-07-02T10:29:33.406Z,2.30
2018-07-02T10:32:04.622Z,2.45
2018-07-02T10:39:14.616Z,2.40
2018-07-02T10:41:45.987Z,2.70
2018-07-02T10:44:16.982Z,2.37
2018-07-02T10:46:49.374Z,2.40
2018-07-02T10:49:20.566Z,2.60
2018-07-02T10:51:51.947Z,2.50
2018-07-02T10:54:23.103Z,2.50
2018-07-02T10:56:54.354Z,2.60
2018-07-02T10:59:25.588Z,2.50
2018-07-02T11:01:56.950Z,2.42
2018-07-02T11:04:28.335Z,2.95
2018-07-02T11:06:59.800Z,2.50
2018-07-02T11:09:30.501Z,2.77
2018-07-02T11:12:01.841Z,2.58
2018-07-02T11:14:33.036Z,2.40
2018-07-02T11:17:04.122Z,2.50
2018-07-02T11:19:35.289Z,2.30
2018-07-02T11:22:06.551Z,2.35
2018-07-02T11:24:38.118Z,2.50
2018-07-02T11:27:10.171Z,2.95
2018-07-02T11:29:41.369Z,2.70
2018-07-02T11:32:12.101Z,2.83
2018-07-02T11:34:43.167Z,2.70
2018-07-02T11:37:14.481Z,2.67
2018-07-02T11:39:46.031Z,2.47
2018-07-02T11:42:17.141Z,2.52
2018-07-02T11:44:48.340Z,2.40
2018-07-02T11:47:19.384Z,2.40
2018-07-02T11:49:50.987Z,2.80
2018-07-02T11:52:22.280Z,2.63
2018-07-02T11:54:53.559Z,2.30
2018-07-02T11:57:24.918Z,2.50
2018-07-02T11:59:56.459Z,2.42
2018-07-02T12:02:27.500Z,2.65
2018-07-02T12:04:58.640Z,2.70
2018-07-02T12:07:32.337Z,2.50
2018-07-02T12:10:05.999Z,2.60
2018-07-02T12:17:28.902Z,2.70
2018-07-02T12:20:00.082Z,2.70
2018-07-02T12:22:31.099Z,2.85
2018-07-02T12:25:02.484Z,2.75
2018-07-02T12:27:33.901Z,2.60
2018-07-02T12:30:05.626Z,2.60
2018-07-02T12:32:37.020Z,2.90
2018-07-02T12:35:08.256Z,2.72
2018-07-02T12:37:40.716Z,2.60
2018-07-02T12:40:11.583Z,2.72
2018-07-02T12:42:42.584Z,2.50
2018-07-02T12:45:13.758Z,2.60
2018-07-02T12:47:44.972Z,2.77
2018-07-02T12:50:16.904Z,2.52
2018-07-02T12:52:47.929Z,2.80
2018-07-02T12:55:19.166Z,2.75
2018-07-02T12:57:50.404Z,2.60
2018-07-02T13:00:23.539Z,3.00
2018-07-02T13:02:54.844Z,2.80
2018-07-02T13:05:26.051Z,2.60
2018-07-02T13:07:57.317Z,3.00
2018-07-02T13:10:28.683Z,2.65
2018-07-02T13:13:00.040Z,3.05
2018-07-02T13:15:31.095Z,2.60
2018-07-02T13:18:02.435Z,3.12
2018-07-02T13:20:33.567Z,2.98
2018-07-02T13:23:04.812Z,3.00
2018-07-02T13:25:36.283Z,3.10
2018-07-02T13:28:07.516Z,3.02
2018-07-02T13:30:38.583Z,3.40
2018-07-02T13:33:09.814Z,3.10
2018-07-02T13:35:41.147Z,3.10
2018-07-02T13:38:12.400Z,3.10
2018-07-02T13:40:43.708Z,3.02
2018-07-02T13:43:14.797Z,2.90
2018-07-02T13:45:45.946Z,3.10
2018-07-02T13:48:20.342Z,3.05
2018-07-02T13:50:52.075Z,3.20
2018-07-02T13:53:23.429Z,3.00
2018-07-02T13:55:54.879Z,3.20
2018-07-02T13:58:26.221Z,2.90
2018-07-02T14:00:57.628Z,3.35
2018-07-02T14:03:28.818Z,2.98
2018-07-02T14:05:59.965Z,3.30
2018-07-02T14:08:31.063Z,4.00
2018-07-02T14:11:02.399Z,3.22
2018-07-02T14:13:33.804Z,3.25
2018-07-02T14:16:05.261Z,3.42
2018-07-02T14:18:36.340Z,3.50
2018-07-02T14:21:07.908Z,3.15
2018-07-02T14:23:39.367Z,3.35
2018-07-02T14:26:10.695Z,3.20
2018-07-02T14:28:42.352Z,3.08
2018-07-02T14:31:13.668Z,3.20
2018-07-02T14:33:45.103Z,3.22
2018-07-02T14:36:16.497Z,3.33
2018-07-02T14:38:47.817Z,3.90
2018-07-02T14:41:18.964Z,3.35
2018-07-02T14:43:50.463Z,3.77
2018-07-02T14:46:22.152Z,3.50
2018-07-02T14:48:53.368Z,3.90
2018-07-02T14:51:24.403Z,3.40
2018-07-02T14:53:55.740Z,3.70
2018-07-02T14:56:26.956Z,3.55
2018-07-02T14:58:58.145Z,3.55
2018-07-02T15:01:29.344Z,3.37
2018-07-02T15:04:00.723Z,3.52
2018-07-02T15:06:32.380Z,3.40
2018-07-02T15:09:04.628Z,3.40
2018-07-02T15:11:35.662Z,3.85
2018-07-02T15:14:06.765Z,3.40
2018-07-02T15:16:38.096Z,3.60
2018-07-02T15:19:09.439Z,3.65
2018-07-02T15:21:40.479Z,3.47
2018-07-02T15:24:11.888Z,3.90
2018-07-02T15:26:43.046Z,4.03
2018-07-02T15:29:14.450Z,3.60
2018-07-02T15:31:45.839Z,3.72
2018-07-02T15:34:17.232Z,3.90
2018-07-02T15:36:48.636Z,3.55
2018-07-02T15:39:19.953Z,3.55
2018-07-02T15:41:51.039Z,3.98
2018-07-02T15:44:22.327Z,3.90
2018-07-02T15:46:54.810Z,3.45
2018-07-02T15:49:25.931Z,3.80
2018-07-02T15:51:57.370Z,4.17
2018-07-02T15:54:28.492Z,4.08
2018-07-02T15:56:59.740Z,3.65
2018-07-02T15:59:31.258Z,3.60
2018-07-02T16:02:02.536Z,3.77
2018-07-02T16:04:34.220Z,3.70
2018-07-02T16:07:05.547Z,3.70
2018-07-02T16:09:36.828Z,3.40
2018-07-02T16:12:08.210Z,3.92
2018-07-02T16:14:39.523Z,3.30
2018-07-02T16:17:10.888Z,3.22
2018-07-02T16:19:41.969Z,3.33
2018-07-02T16:22:13.028Z,3.47
2018-07-02T16:24:44.179Z,3.60
2018-07-02T16:27:15.862Z,3.33
2018-07-02T16:29:47.134Z,3.45
2018-07-02T16:32:18.357Z,3.40
2018-07-02T16:34:49.521Z,3.80
2018-07-02T16:37:20.545Z,3.47
2018-07-02T16:39:52.195Z,3.20
2018-07-02T16:42:23.290Z,3.90
2018-07-02T16:44:57.883Z,3.42
2018-07-02T16:47:29.419Z,3.37
2018-07-02T16:50:01.038Z,3.27
2018-07-02T16:52:32.438Z,3.27
2018-07-02T16:55:03.619Z,3.42
2018-07-02T16:57:34.820Z,3.30
2018-07-02T17:00:07.012Z,3.70
2018-07-02T17:02:38.231Z,3.62
2018-07-02T17:05:09.584Z,3.70
2018-07-02T17:07:41.012Z,3.90
2018-07-02T17:10:12.591Z,3.50
2018-07-02T17:12:43.696Z,3.47
2018-07-02T17:15:15.108Z,3.40
2018-07-02T17:17:46.501Z,3.20
2018-07-02T17:20:17.932Z,3.83
2018-07-02T17:22:49.551Z,3.55
2018-07-02T17:25:20.649Z,3.67
2018-07-02T17:27:51.744Z,3.57
2018-07-02T17:30:22.426Z,3.57
2018-07-02T17:32:53.876Z,3.23
2018-07-02T17:35:25.280Z,3.50
2018-07-02T17:37:56.659Z,3.20
2018-07-02T17:40:27.459Z,3.10
2018-07-02T17:42:58.800Z,3.47
2018-07-02T17:45:30.163Z,3.50
2018-07-02T17:48:01.887Z,3.50
2018-07-02T17:50:32.960Z,3.00
2018-07-02T17:53:04.676Z,3.30
2018-07-02T17:55:35.900Z,3.50
2018-07-02T17:58:07.833Z,3.53
2018-07-02T18:00:39.079Z,3.47
2018-07-02T18:03:10.152Z,3.60
2018-07-02T18:05:41.722Z,3.20
2018-07-02T18:08:13.066Z,3.30
2018-07-02T18:10:44.369Z,3.10
2018-07-02T18:13:15.462Z,3.20
2018-07-02T18:15:47.127Z,3.30
2018-07-02T18:18:17.901Z,3.57
2018-07-02T18:20:49.260Z,3.00
2018-07-02T18:23:20.448Z,3.63
2018-07-02T18:25:51.552Z,3.40
2018-07-02T18:28:23.081Z,3.63
2018-07-02T18:30:54.176Z,3.40
2018-07-02T18:33:25.571Z,3.53
2018-07-02T18:35:56.769Z,3.50
2018-07-02T18:38:28.129Z,3.30
2018-07-02T18:40:59.176Z,3.63
2018-07-02T18:43:30.794Z,3.10
2018-07-02T18:46:02.089Z,3.50
2018-07-02T18:48:33.992Z,3.40
2018-07-02T18:51:05.314Z,3.83
2018-07-02T18:53:36.487Z,3.70
2018-07-02T18:56:07.577Z,3.30
2018-07-02T18:58:38.656Z,3.40
2018-07-02T19:01:10.107Z,3.40
2018-07-02T19:03:41.298Z,3.20
2018-07-02T19:06:12.699Z,3.70
2018-07-02T19:08:44.523Z,3.50
2018-07-02T19:11:15.708Z,3.40
2018-07-02T19:13:46.506Z,3.70
2018-07-02T19:16:18.265Z,4.60
2018-07-02T19:18:49.549Z,3.80
2018-07-02T19:21:21.329Z,3.63
2018-07-02T19:23:53.078Z,3.70
2018-07-02T19:26:24.735Z,3.83
2018-07-02T19:28:55.969Z,3.60
2018-07-02T19:31:27.113Z,3.63
2018-07-02T19:33:58.329Z,3.87
2018-07-02T19:36:30.067Z,4.00
2018-07-02T19:39:01.315Z,3.93
2018-07-02T19:41:32.926Z,4.10
2018-07-02T19:44:04.537Z,3.57
2018-07-02T19:46:35.681Z,3.27
2018-07-02T19:49:07.022Z,4.00
2018-07-02T19:51:38.392Z,3.30
2018-07-02T19:54:09.638Z,3.90
2018-07-02T19:56:40.832Z,3.70
2018-07-02T19:59:11.974Z,3.93
2018-07-02T20:01:43.224Z,3.53
2018-07-02T20:04:14.820Z,4.00
2018-07-02T20:06:46.085Z,3.87
2018-07-02T20:09:17.168Z,3.63
2018-07-02T20:11:48.503Z,4.10
2018-07-02T20:14:19.707Z,3.83
2018-07-02T20:16:51.399Z,3.90
2018-07-02T20:19:22.532Z,3.83
2018-07-02T20:21:53.900Z,3.90
2018-07-02T20:24:25.476Z,3.87
2018-07-02T20:26:56.933Z,3.63
2018-07-02T20:29:28.170Z,3.77
2018-07-02T20:31:59.555Z,3.37
2018-07-02T20:34:30.743Z,4.00
2018-07-02T20:37:03.192Z,3.80
2018-07-02T20:39:34.778Z,3.77
2018-07-02T20:42:06.552Z,3.83
2018-07-02T20:44:37.740Z,3.63
2018-07-02T20:47:09.403Z,4.07
2018-07-02T20:49:40.920Z,3.70
2018-07-02T20:52:12.633Z,4.00
2018-07-02T20:54:50.155Z,4.07
2018-07-02T20:57:22.570Z,4.27
2018-07-02T20:59:54.438Z,4.10
2018-07-02T21:02:26.409Z,4.33
2018-07-02T21:04:57.031Z,5.13
2018-07-02T21:07:28.130Z,4.03
2018-07-02T21:10:00.791Z,4.80
2018-07-02T21:12:32.308Z,4.53
2018-07-02T21:15:03.920Z,4.10
2018-07-02T21:17:35.255Z,4.43
2018-07-02T21:20:06.853Z,4.60
2018-07-02T21:22:38.014Z,4.90
2018-07-02T21:25:09.013Z,4.87
2018-07-02T21:27:43.743Z,4.90
2018-07-02T21:30:15.191Z,5.13
2018-07-02T21:32:46.989Z,5.03
2018-07-02T21:35:18.171Z,5.73
2018-07-02T21:37:49.491Z,5.97
2018-07-02T21:40:20.935Z,5.83
2018-07-02T21:42:52.251Z,5.40
2018-07-02T21:45:23.434Z,5.37
2018-07-02T21:47:54.529Z,5.50
2018-07-02T21:50:25.968Z,5.53
2018-07-02T21:52:57.260Z,5.03
2018-07-02T21:55:28.403Z,4.97
2018-07-02T21:58:04.004Z,4.97
2018-07-02T22:00:37.055Z,5.90
2018-07-02T22:03:09.282Z,5.30
2018-07-02T22:05:41.019Z,5.20
2018-07-02T22:08:12.792Z,5.63
2018-07-02T22:10:44.087Z,5.40
2018-07-02T22:13:15.679Z,5.50
2018-07-02T22:15:47.666Z,5.00
2018-07-02T22:18:19.444Z,5.10
2018-07-02T22:20:50.818Z,5.70
2018-07-02T22:23:22.419Z,5.40
2018-07-02T22:25:53.390Z,5.50
2018-07-02T22:28:24.926Z,4.90
2018-07-02T22:30:56.323Z,5.80
2018-07-02T22:33:27.515Z,5.70
2018-07-02T22:35:58.664Z,5.27
2018-07-02T22:38:30.108Z,5.63
2018-07-02T22:41:01.253Z,5.57
2018-07-02T22:43:33.443Z,6.00
2018-07-02T22:46:04.928Z,5.40
2018-07-02T22:48:36.025Z,5.80
2018-07-02T22:51:07.440Z,5.90
2018-07-02T22:53:38.872Z,5.90
2018-07-02T22:56:10.158Z,5.90
2018-07-02T22:58:42.081Z,5.67
2018-07-02T23:01:14.720Z,5.50
2018-07-02T23:03:46.214Z,5.63
2018-07-02T23:06:17.300Z,5.47
2018-07-02T23:08:48.664Z,5.67
2018-07-02T23:11:20.111Z,5.80
2018-07-02T23:13:51.439Z,6.10
2018-07-02T23:16:22.856Z,5.70
2018-07-02T23:18:54.056Z,6.13
2018-07-02T23:21:25.483Z,6.30
2018-07-02T23:23:56.835Z,6.60
2018-07-02T23:26:27.999Z,6.30
2018-07-02T23:28:59.663Z,6.20
2018-07-02T23:32:33.519Z,5.63
2018-07-02T23:35:04.903Z,6.30
2018-07-02T23:37:36.328Z,6.13
2018-07-02T23:40:07.495Z,6.37
2018-07-02T23:42:45.916Z,7.07
2018-07-02T23:45:17.585Z,6.47
2018-07-02T23:47:49.190Z,6.07
2018-07-02T23:50:20.492Z,5.57
2018-07-02T23:52:51.985Z,5.77
2018-07-02T23:55:23.092Z,5.80
2018-07-02T23:57:54.875Z,5.87
